sensor_id;sensor_type;location;lat;lon;timestamp;pressure;altitude;pressure_sealevel;temperature;humidity
26112;BME280;13829;48.990;8.346;2022-12-10T00:02:14;99367.88;;;2.89;96.37
26112;BME280;13829;48.990;8.346;2022-12-10T00:04:41;99362.47;;;2.80;97.20
26112;BME280;13829;48.990;8.346;2022-12-10T00:07:08;99374.59;;;2.77;97.51
26112;BME280;13829;48.990;8.346;2022-12-10T00:09:36;99373.41;;;3.07;95.74
26112;BME280;13829;48.990;8.346;2022-12-10T00:12:05;99371.97;;;2.77;97.20
26112;BME280;13829;48.990;8.346;2022-12-10T00:14:31;99366.41;;;3.03;96.19
26112;BME280;13829;48.990;8.346;2022-12-10T00:16:58;99376.75;;;3.00;95.45
26112;BME280;13829;48.990;8.346;2022-12-10T00:19:25;99369.72;;;2.96;95.93
26112;BME280;13829;48.990;8.346;2022-12-10T00:21:52;99371.34;;;2.91;96.70
26112;BME280;13829;48.990;8.346;2022-12-10T00:24:19;99377.44;;;2.91;97.17
26112;BME280;13829;48.990;8.346;2022-12-10T00:26:46;99374.06;;;2.96;97.24
26112;BME280;13829;48.990;8.346;2022-12-10T00:29:14;99376.78;;;3.03;95.31
26112;BME280;13829;48.990;8.346;2022-12-10T00:31:41;99378.25;;;2.89;96.68
26112;BME280;13829;48.990;8.346;2022-12-10T00:34:11;99374.50;;;2.74;98.15
26112;BME280;13829;48.990;8.346;2022-12-10T00:36:41;99373.28;;;3.01;95.86
26112;BME280;13829;48.990;8.346;2022-12-10T00:39:11;99368.84;;;2.96;95.77
26112;BME280;13829;48.990;8.346;2022-12-10T00:41:38;99374.06;;;2.97;95.89
26112;BME280;13829;48.990;8.346;2022-12-10T00:44:05;99374.88;;;2.93;95.76
26112;BME280;13829;48.990;8.346;2022-12-10T00:46:33;99380.19;;;2.99;96.22
26112;BME280;13829;48.990;8.346;2022-12-10T00:49:00;99366.78;;;2.77;96.46
26112;BME280;13829;48.990;8.346;2022-12-10T00:51:28;99370.28;;;2.81;97.21
26112;BME280;13829;48.990;8.346;2022-12-10T00:53:57;99366.00;;;2.82;97.50
26112;BME280;13829;48.990;8.346;2022-12-10T00:56:27;99373.97;;;2.48;98.90
26112;BME280;13829;48.990;8.346;2022-12-10T00:58:55;99374.44;;;2.71;98.21
26112;BME280;13829;48.990;8.346;2022-12-10T01:01:26;99372.16;;;2.88;97.43
26112;BME280;13829;48.990;8.346;2022-12-10T01:03:58;99383.63;;;2.55;98.00
26112;BME280;13829;48.990;8.346;2022-12-10T01:06:27;99386.22;;;2.55;98.54
26112;BME280;13829;48.990;8.346;2022-12-10T01:08:59;99394.69;;;2.47;98.91
26112;BME280;13829;48.990;8.346;2022-12-10T01:11:31;99400.19;;;2.62;98.55
26112;BME280;13829;48.990;8.346;2022-12-10T01:13:59;99395.88;;;2.61;98.98
26112;BME280;13829;48.990;8.346;2022-12-10T01:16:27;99397.44;;;2.54;99.37
26112;BME280;13829;48.990;8.346;2022-12-10T01:18:57;99400.28;;;2.65;98.44
26112;BME280;13829;48.990;8.346;2022-12-10T01:21:27;99410.69;;;2.67;99.00
26112;BME280;13829;48.990;8.346;2022-12-10T01:23:55;99421.03;;;2.64;99.43
26112;BME280;13829;48.990;8.346;2022-12-10T01:26:24;99411.81;;;2.80;97.32
26112;BME280;13829;48.990;8.346;2022-12-10T01:28:53;99416.47;;;2.53;98.52
26112;BME280;13829;48.990;8.346;2022-12-10T01:31:24;99419.25;;;2.61;98.23
26112;BME280;13829;48.990;8.346;2022-12-10T01:33:51;99424.47;;;2.64;98.16
26112;BME280;13829;48.990;8.346;2022-12-10T01:36:22;99428.13;;;2.72;97.63
26112;BME280;13829;48.990;8.346;2022-12-10T01:38:50;99421.84;;;2.61;98.30
26112;BME280;13829;48.990;8.346;2022-12-10T01:41:21;99424.31;;;2.55;99.22
26112;BME280;13829;48.990;8.346;2022-12-10T01:43:55;99417.25;;;2.51;99.13
26112;BME280;13829;48.990;8.346;2022-12-10T01:46:26;99420.97;;;2.62;99.27
26112;BME280;13829;48.990;8.346;2022-12-10T01:48:53;99415.19;;;2.74;97.83
26112;BME280;13829;48.990;8.346;2022-12-10T01:51:24;99417.34;;;2.54;98.41
26112;BME280;13829;48.990;8.346;2022-12-10T01:53:52;99420.25;;;2.69;99.00
26112;BME280;13829;48.990;8.346;2022-12-10T01:56:20;99428.25;;;2.37;99.37
26112;BME280;13829;48.990;8.346;2022-12-10T01:58:50;99424.06;;;2.45;99.26
26112;BME280;13829;48.990;8.346;2022-12-10T02:01:27;99431.31;;;2.59;98.95
26112;BME280;13829;48.990;8.346;2022-12-10T02:04:08;99426.16;;;2.62;98.90
26112;BME280;13829;48.990;8.346;2022-12-10T02:06:54;99427.13;;;2.67;98.67
26112;BME280;13829;48.990;8.346;2022-12-10T02:09:32;99428.72;;;2.60;99.23
26112;BME280;13829;48.990;8.346;2022-12-10T02:12:13;99421.75;;;2.58;99.74
26112;BME280;13829;48.990;8.346;2022-12-10T02:14:53;99427.66;;;2.51;100.00
26112;BME280;13829;48.990;8.346;2022-12-10T02:17:27;99423.63;;;2.64;99.35
26112;BME280;13829;48.990;8.346;2022-12-10T02:20:08;99426.28;;;2.68;98.85
26112;BME280;13829;48.990;8.346;2022-12-10T02:22:45;99425.84;;;2.47;99.88
26112;BME280;13829;48.990;8.346;2022-12-10T02:25:17;99425.09;;;2.52;100.00
26112;BME280;13829;48.990;8.346;2022-12-10T02:27:55;99416.47;;;2.53;100.00
26112;BME280;13829;48.990;8.346;2022-12-10T02:30:26;99415.84;;;2.25;100.00
26112;BME280;13829;48.990;8.346;2022-12-10T02:32:55;99411.53;;;2.24;100.00
26112;BME280;13829;48.990;8.346;2022-12-10T02:35:27;99409.75;;;2.22;100.00
26112;BME280;13829;48.990;8.346;2022-12-10T02:38:00;99416.28;;;2.45;100.00
26112;BME280;13829;48.990;8.346;2022-12-10T02:40:33;99404.75;;;2.31;100.00
26112;BME280;13829;48.990;8.346;2022-12-10T02:43:02;99404.13;;;2.43;100.00
26112;BME280;13829;48.990;8.346;2022-12-10T02:45:32;99402.34;;;2.40;100.00
26112;BME280;13829;48.990;8.346;2022-12-10T02:48:03;99396.72;;;2.60;99.65
26112;BME280;13829;48.990;8.346;2022-12-10T02:50:31;99397.47;;;2.56;99.74
26112;BME280;13829;48.990;8.346;2022-12-10T02:52:57;99390.25;;;2.41;100.00
26112;BME280;13829;48.990;8.346;2022-12-10T02:55:25;99391.25;;;2.48;100.00
26112;BME280;13829;48.990;8.346;2022-12-10T02:58:10;99403.28;;;2.44;100.00
26112;BME280;13829;48.990;8.346;2022-12-10T03:00:49;99399.28;;;2.58;100.00
26112;BME280;13829;48.990;8.346;2022-12-10T03:03:33;99408.78;;;2.58;100.00
26112;BME280;13829;48.990;8.346;2022-12-10T03:06:09;99408.91;;;2.64;100.00
26112;BME280;13829;48.990;8.346;2022-12-10T03:08:46;99409.81;;;2.66;98.78
26112;BME280;13829;48.990;8.346;2022-12-10T03:11:17;99405.72;;;2.77;99.02
26112;BME280;13829;48.990;8.346;2022-12-10T03:13:54;99420.25;;;2.69;99.22
26112;BME280;13829;48.990;8.346;2022-12-10T03:16:30;99426.28;;;2.68;98.36
26112;BME280;13829;48.990;8.346;2022-12-10T03:19:05;99421.06;;;2.67;98.57
26112;BME280;13829;48.990;8.346;2022-12-10T03:21:34;99418.50;;;2.68;98.92
26112;BME280;13829;48.990;8.346;2022-12-10T03:24:04;99409.81;;;2.66;98.85
26112;BME280;13829;48.990;8.346;2022-12-10T03:26:32;99420.53;;;2.83;97.95
26112;BME280;13829;48.990;8.346;2022-12-10T03:29:06;99408.50;;;2.45;98.39
26112;BME280;13829;48.990;8.346;2022-12-10T03:31:38;99415.47;;;2.47;99.45
26112;BME280;13829;48.990;8.346;2022-12-10T03:34:08;99415.19;;;2.34;100.00
26112;BME280;13829;48.990;8.346;2022-12-10T03:36:37;99425.97;;;2.53;100.00
26112;BME280;13829;48.990;8.346;2022-12-10T03:39:05;99415.59;;;2.53;99.58
26112;BME280;13829;48.990;8.346;2022-12-10T03:41:32;99418.06;;;2.48;100.00
26112;BME280;13829;48.990;8.346;2022-12-10T03:44:00;99421.56;;;2.49;100.00
26112;BME280;13829;48.990;8.346;2022-12-10T03:46:29;99429.50;;;2.55;99.86
26112;BME280;13829;48.990;8.346;2022-12-10T03:49:00;99430.66;;;2.69;99.50
26112;BME280;13829;48.990;8.346;2022-12-10T03:51:27;99427.72;;;2.52;98.86
26112;BME280;13829;48.990;8.346;2022-12-10T03:53:54;99434.25;;;2.36;100.00
26112;BME280;13829;48.990;8.346;2022-12-10T03:56:21;99431.97;;;2.50;99.94
26112;BME280;13829;48.990;8.346;2022-12-10T03:58:48;99427.53;;;2.44;100.00
26112;BME280;13829;48.990;8.346;2022-12-10T04:01:16;99433.38;;;2.75;98.92
26112;BME280;13829;48.990;8.346;2022-12-10T04:03:43;99429.25;;;2.44;100.00
26112;BME280;13829;48.990;8.346;2022-12-10T04:06:15;99441.34;;;2.43;99.82
26112;BME280;13829;48.990;8.346;2022-12-10T04:08:43;99436.88;;;2.38;99.97
26112;BME280;13829;48.990;8.346;2022-12-10T04:11:13;99440.25;;;2.34;100.00
26112;BME280;13829;48.990;8.346;2022-12-10T04:13:41;99447.09;;;2.30;100.00
26112;BME280;13829;48.990;8.346;2022-12-10T04:16:26;99443.72;;;2.34;100.00
26112;BME280;13829;48.990;8.346;2022-12-10T04:18:55;99442.97;;;2.38;100.00
26112;BME280;13829;48.990;8.346;2022-12-10T04:21:24;99435.31;;;2.44;100.00
26112;BME280;13829;48.990;8.346;2022-12-10T04:24:09;99445.75;;;2.48;100.00
26112;BME280;13829;48.990;8.346;2022-12-10T04:26:54;99442.16;;;2.41;100.00
26112;BME280;13829;48.990;8.346;2022-12-10T04:29:24;99455.69;;;2.67;99.06
26112;BME280;13829;48.990;8.346;2022-12-10T04:31:52;99441.41;;;2.47;100.00
26112;BME280;13829;48.990;8.346;2022-12-10T04:34:20;99441.41;;;2.47;99.71
26112;BME280;13829;48.990;8.346;2022-12-10T04:36:49;99441.22;;;2.37;100.00
26112;BME280;13829;48.990;8.346;2022-12-10T04:39:17;99438.38;;;2.66;99.87
26112;BME280;13829;48.990;8.346;2022-12-10T04:41:48;99440.88;;;2.61;99.48
26112;BME280;13829;48.990;8.346;2022-12-10T04:44:16;99436.22;;;2.47;100.00
26112;BME280;13829;48.990;8.346;2022-12-10T04:46:43;99438.09;;;2.52;100.00
26112;BME280;13829;48.990;8.346;2022-12-10T04:49:10;99436.50;;;2.59;100.00
26112;BME280;13829;48.990;8.346;2022-12-10T04:51:38;99440.22;;;2.72;100.00
26112;BME280;13829;48.990;8.346;2022-12-10T04:54:07;99441.56;;;2.54;100.00
26112;BME280;13829;48.990;8.346;2022-12-10T04:56:35;99432.41;;;2.70;100.00
26112;BME280;13829;48.990;8.346;2022-12-10T04:59:04;99427.31;;;2.75;99.20
26112;BME280;13829;48.990;8.346;2022-12-10T05:01:32;99429.53;;;2.58;100.00
26112;BME280;13829;48.990;8.346;2022-12-10T05:04:02;99434.69;;;2.55;99.19
26112;BME280;13829;48.990;8.346;2022-12-10T05:06:30;99446.88;;;2.59;99.10
26112;BME280;13829;48.990;8.346;2022-12-10T05:08:57;99449.69;;;2.30;100.00
26112;BME280;13829;48.990;8.346;2022-12-10T05:11:28;99441.22;;;2.37;100.00
26112;BME280;13829;48.990;8.346;2022-12-10T05:13:57;99451.13;;;2.57;100.00
26112;BME280;13829;48.990;8.346;2022-12-10T05:16:26;99451.31;;;2.65;99.89
26112;BME280;13829;48.990;8.346;2022-12-10T05:18:55;99457.41;;;2.65;99.61
26112;BME280;13829;48.990;8.346;2022-12-10T05:21:25;99462.50;;;2.62;100.00
26112;BME280;13829;48.990;8.346;2022-12-10T05:24:12;99464.97;;;2.56;99.56
26112;BME280;13829;48.990;8.346;2022-12-10T05:26:40;99469.72;;;2.75;98.28
26112;BME280;13829;48.990;8.346;2022-12-10T05:29:07;99460.41;;;2.45;99.15
26112;BME280;13829;48.990;8.346;2022-12-10T05:31:34;99456.97;;;2.47;100.00
26112;BME280;13829;48.990;8.346;2022-12-10T05:34:01;99461.38;;;2.51;98.99
26112;BME280;13829;48.990;8.346;2022-12-10T05:36:31;99466.22;;;2.34;99.70
26112;BME280;13829;48.990;8.346;2022-12-10T05:38:59;99464.28;;;2.25;100.00
26112;BME280;13829;48.990;8.346;2022-12-10T05:41:28;99467.38;;;2.10;100.00
26112;BME280;13829;48.990;8.346;2022-12-10T05:43:58;99477.91;;;2.16;100.00
26112;BME280;13829;48.990;8.346;2022-12-10T05:46:28;99474.94;;;2.01;100.00
26112;BME280;13829;48.990;8.346;2022-12-10T05:48:56;99485.44;;;2.05;100.00
26112;BME280;13829;48.990;8.346;2022-12-10T05:51:26;99488.72;;;1.98;100.00
26112;BME280;13829;48.990;8.346;2022-12-10T05:53:54;99485.56;;;2.11;100.00
26112;BME280;13829;48.990;8.346;2022-12-10T05:56:24;99476.22;;;2.17;100.00
26112;BME280;13829;48.990;8.346;2022-12-10T05:58:54;99474.75;;;1.93;100.00
26112;BME280;13829;48.990;8.346;2022-12-10T06:01:27;99481.97;;;2.06;100.00
26112;BME280;13829;48.990;8.346;2022-12-10T06:03:56;99474.91;;;1.99;100.00
26112;BME280;13829;48.990;8.346;2022-12-10T06:06:25;99481.31;;;2.14;100.00
26112;BME280;13829;48.990;8.346;2022-12-10T06:08:53;99487.03;;;2.00;100.00
26112;BME280;13829;48.990;8.346;2022-12-10T06:11:20;99484.06;;;2.21;100.00
26112;BME280;13829;48.990;8.346;2022-12-10T06:13:47;99491.47;;;2.04;100.00
26112;BME280;13829;48.990;8.346;2022-12-10T06:16:15;99496.03;;;2.15;100.00
26112;BME280;13829;48.990;8.346;2022-12-10T06:18:43;99494.75;;;1.99;100.00
26112;BME280;13829;48.990;8.346;2022-12-10T06:21:13;99494.06;;;2.04;100.00
26112;BME280;13829;48.990;8.346;2022-12-10T06:23:41;99494.56;;;1.91;100.00
26112;BME280;13829;48.990;8.346;2022-12-10T06:26:11;99490.94;;;1.83;100.00
26112;BME280;13829;48.990;8.346;2022-12-10T06:28:39;99505.50;;;1.77;100.00
26112;BME280;13829;48.990;8.346;2022-12-10T06:31:06;99500.91;;;2.02;100.00
26112;BME280;13829;48.990;8.346;2022-12-10T06:33:34;99511.28;;;2.02;100.00
26112;BME280;13829;48.990;8.346;2022-12-10T06:36:06;99516.56;;;2.05;100.00
26112;BME280;13829;48.990;8.346;2022-12-10T06:38:33;99520.06;;;2.07;100.00
26112;BME280;13829;48.990;8.346;2022-12-10T06:41:04;99537.53;;;2.15;100.00
26112;BME280;13829;48.990;8.346;2022-12-10T06:43:31;99537.59;;;2.18;100.00
26112;BME280;13829;48.990;8.346;2022-12-10T06:45:58;99545.81;;;2.01;100.00
26112;BME280;13829;48.990;8.346;2022-12-10T06:48:24;99539.44;;;2.22;100.00
26112;BME280;13829;48.990;8.346;2022-12-10T06:50:52;99542.88;;;2.21;100.00
26112;BME280;13829;48.990;8.346;2022-12-10T06:53:23;99547.59;;;2.37;100.00
26112;BME280;13829;48.990;8.346;2022-12-10T06:55:49;99544.84;;;2.31;100.00
26112;BME280;13829;48.990;8.346;2022-12-10T06:58:16;99549.06;;;2.26;100.00
26112;BME280;13829;48.990;8.346;2022-12-10T07:00:43;99548.41;;;2.35;99.59
26112;BME280;13829;48.990;8.346;2022-12-10T07:03:10;99548.59;;;2.42;99.07
26112;BME280;13829;48.990;8.346;2022-12-10T07:05:37;99547.66;;;2.40;98.85
26112;BME280;13829;48.990;8.346;2022-12-10T07:08:04;99549.84;;;2.23;98.49
26112;BME280;13829;48.990;8.346;2022-12-10T07:10:32;99560.88;;;2.15;99.74
26112;BME280;13829;48.990;8.346;2022-12-10T07:12:59;99548.22;;;2.27;100.00
26112;BME280;13829;48.990;8.346;2022-12-10T07:15:26;99554.25;;;2.26;99.60
26112;BME280;13829;48.990;8.346;2022-12-10T07:17:54;99554.28;;;2.64;96.37
26112;BME280;13829;48.990;8.346;2022-12-10T07:20:21;99560.44;;;2.69;97.01
26112;BME280;13829;48.990;8.346;2022-12-10T07:22:48;99557.00;;;2.32;97.27
26112;BME280;13829;48.990;8.346;2022-12-10T07:25:15;99568.72;;;2.18;98.44
26112;BME280;13829;48.990;8.346;2022-12-10T07:27:43;99562.91;;;2.28;97.71
26112;BME280;13829;48.990;8.346;2022-12-10T07:30:11;99574.63;;;2.10;98.63
26112;BME280;13829;48.990;8.346;2022-12-10T07:32:38;99573.44;;;2.34;97.31
26112;BME280;13829;48.990;8.346;2022-12-10T07:35:06;99577.09;;;2.41;97.69
26112;BME280;13829;48.990;8.346;2022-12-10T07:37:33;99593.38;;;2.35;97.63
26112;BME280;13829;48.990;8.346;2022-12-10T07:40:00;99582.38;;;2.45;96.53
26112;BME280;13829;48.990;8.346;2022-12-10T07:42:27;99589.59;;;2.57;96.54
26112;BME280;13829;48.990;8.346;2022-12-10T07:44:55;99588.72;;;2.57;96.97
26112;BME280;13829;48.990;8.346;2022-12-10T07:47:22;99597.56;;;2.65;95.52
26112;BME280;13829;48.990;8.346;2022-12-10T07:49:49;99595.78;;;2.63;95.26
26112;BME280;13829;48.990;8.346;2022-12-10T07:52:16;99595.78;;;2.63;95.88
26112;BME280;13829;48.990;8.346;2022-12-10T07:54:43;99594.22;;;2.71;96.02
26112;BME280;13829;48.990;8.346;2022-12-10T07:57:10;99602.81;;;2.68;95.16
26112;BME280;13829;48.990;8.346;2022-12-10T07:59:37;99594.53;;;2.83;95.60
26112;BME280;13829;48.990;8.346;2022-12-10T08:02:05;99597.78;;;2.74;94.65
26112;BME280;13829;48.990;8.346;2022-12-10T08:04:32;99598.13;;;2.53;94.65
26112;BME280;13829;48.990;8.346;2022-12-10T08:06:59;99605.88;;;2.52;95.09
26112;BME280;13829;48.990;8.346;2022-12-10T08:09:26;99593.38;;;2.70;95.23
26112;BME280;13829;48.990;8.346;2022-12-10T08:11:53;99604.94;;;2.85;94.40
26112;BME280;13829;48.990;8.346;2022-12-10T08:14:19;99608.25;;;3.16;91.75
26112;BME280;13829;48.990;8.346;2022-12-10T08:16:46;99607.44;;;2.80;91.31
26112;BME280;13829;48.990;8.346;2022-12-10T08:19:15;99609.94;;;2.75;93.44
26112;BME280;13829;48.990;8.346;2022-12-10T08:21:42;99604.28;;;2.93;93.01
26112;BME280;13829;48.990;8.346;2022-12-10T08:24:09;99607.69;;;2.91;92.54
26112;BME280;13829;48.990;8.346;2022-12-10T08:26:36;99607.38;;;2.78;92.23
26112;BME280;13829;48.990;8.346;2022-12-10T08:29:04;99610.06;;;2.82;92.93
26112;BME280;13829;48.990;8.346;2022-12-10T08:31:31;99615.81;;;3.06;92.10
26112;BME280;13829;48.990;8.346;2022-12-10T08:33:58;99621.97;;;2.73;91.75
26112;BME280;13829;48.990;8.346;2022-12-10T08:36:26;99629.75;;;2.72;90.61
26112;BME280;13829;48.990;8.346;2022-12-10T08:38:55;99637.03;;;2.52;93.03
26112;BME280;13829;48.990;8.346;2022-12-10T08:41:22;99633.97;;;2.68;94.07
26112;BME280;13829;48.990;8.346;2022-12-10T08:43:52;99633.91;;;2.65;93.14
26112;BME280;13829;48.990;8.346;2022-12-10T08:46:19;99636.31;;;2.57;92.35
26112;BME280;13829;48.990;8.346;2022-12-10T08:48:46;99636.06;;;2.83;92.24
26112;BME280;13829;48.990;8.346;2022-12-10T08:51:16;99636.91;;;2.82;90.34
26112;BME280;13829;48.990;8.346;2022-12-10T08:53:44;99635.72;;;3.04;89.69
26112;BME280;13829;48.990;8.346;2022-12-10T08:56:12;99639.91;;;2.99;90.47
26112;BME280;13829;48.990;8.346;2022-12-10T08:58:39;99636.41;;;2.97;89.74
26112;BME280;13829;48.990;8.346;2022-12-10T09:01:08;99647.47;;;2.90;89.89
26112;BME280;13829;48.990;8.346;2022-12-10T09:03:35;99638.75;;;2.86;90.03
26112;BME280;13829;48.990;8.346;2022-12-10T09:06:04;99641.38;;;2.88;89.34
26112;BME280;13829;48.990;8.346;2022-12-10T09:08:32;99643.41;;;3.01;89.64
26112;BME280;13829;48.990;8.346;2022-12-10T09:11:06;99645.97;;;3.00;89.78
26112;BME280;13829;48.990;8.346;2022-12-10T09:13:34;99646.59;;;2.88;88.58
26112;BME280;13829;48.990;8.346;2022-12-10T09:16:01;99654.03;;;2.74;89.57
26112;BME280;13829;48.990;8.346;2022-12-10T09:18:28;99650.00;;;2.87;89.68
26112;BME280;13829;48.990;8.346;2022-12-10T09:20:55;99661.69;;;3.04;88.24
26112;BME280;13829;48.990;8.346;2022-12-10T09:23:22;99661.84;;;3.12;87.65
26112;BME280;13829;48.990;8.346;2022-12-10T09:25:49;99663.03;;;2.88;86.96
26112;BME280;13829;48.990;8.346;2022-12-10T09:28:18;99679.03;;;2.70;87.66
26112;BME280;13829;48.990;8.346;2022-12-10T09:30:44;99677.09;;;2.61;87.33
26112;BME280;13829;48.990;8.346;2022-12-10T09:33:12;99684.38;;;2.43;88.54
26112;BME280;13829;48.990;8.346;2022-12-10T09:35:42;99678.84;;;2.63;88.13
26112;BME280;13829;48.990;8.346;2022-12-10T09:38:09;99679.88;;;2.69;88.92
26112;BME280;13829;48.990;8.346;2022-12-10T09:40:43;99681.09;;;2.84;89.33
26112;BME280;13829;48.990;8.346;2022-12-10T09:43:23;99685.50;;;2.86;88.32
26112;BME280;13829;48.990;8.346;2022-12-10T09:46:06;99681.06;;;2.82;88.75
26112;BME280;13829;48.990;8.346;2022-12-10T09:48:42;99694.34;;;2.94;86.35
26112;BME280;13829;48.990;8.346;2022-12-10T09:51:21;99684.75;;;2.92;86.47
26112;BME280;13829;48.990;8.346;2022-12-10T09:53:53;99677.00;;;2.93;85.59
26112;BME280;13829;48.990;8.346;2022-12-10T09:56:28;99681.47;;;2.99;85.82
26112;BME280;13829;48.990;8.346;2022-12-10T09:59:02;99685.25;;;2.77;85.48
26112;BME280;13829;48.990;8.346;2022-12-10T10:01:33;99681.03;;;2.81;85.71
26112;BME280;13829;48.990;8.346;2022-12-10T10:04:03;99685.84;;;2.65;87.21
26112;BME280;13829;48.990;8.346;2022-12-10T10:06:31;99680.38;;;2.56;87.69
26112;BME280;13829;48.990;8.346;2022-12-10T10:09:02;99692.44;;;2.52;89.60
26112;BME280;13829;48.990;8.346;2022-12-10T10:11:33;99681.94;;;2.48;88.12
26112;BME280;13829;48.990;8.346;2022-12-10T10:14:09;99696.22;;;2.65;88.32
26112;BME280;13829;48.990;8.346;2022-12-10T10:16:45;99695.22;;;2.95;88.13
26112;BME280;13829;48.990;8.346;2022-12-10T10:19:18;99691.25;;;3.09;86.96
26112;BME280;13829;48.990;8.346;2022-12-10T10:21:48;99691.16;;;3.06;86.31
26112;BME280;13829;48.990;8.346;2022-12-10T10:24:19;99696.59;;;2.81;84.58
26112;BME280;13829;48.990;8.346;2022-12-10T10:26:47;99691.81;;;2.61;86.08
26112;BME280;13829;48.990;8.346;2022-12-10T10:29:20;99685.75;;;2.62;85.94
26112;BME280;13829;48.990;8.346;2022-12-10T10:32:14;99695.69;;;2.78;86.07
26112;BME280;13829;48.990;8.346;2022-12-10T10:34:43;99695.31;;;2.98;85.92
26112;BME280;13829;48.990;8.346;2022-12-10T10:37:19;99696.75;;;3.23;84.74
26112;BME280;13829;48.990;8.346;2022-12-10T10:39:49;99698.69;;;2.94;83.57
26112;BME280;13829;48.990;8.346;2022-12-10T10:42:32;99705.22;;;2.80;85.37
26112;BME280;13829;48.990;8.346;2022-12-10T10:45:04;99700.31;;;2.90;87.21
26112;BME280;13829;48.990;8.346;2022-12-10T10:47:34;99709.06;;;2.94;85.82
26112;BME280;13829;48.990;8.346;2022-12-10T10:50:04;99699.69;;;3.01;86.16
26112;BME280;13829;48.990;8.346;2022-12-10T10:52:37;99702.13;;;2.94;84.82
26112;BME280;13829;48.990;8.346;2022-12-10T10:55:08;99692.28;;;3.18;83.18
26112;BME280;13829;48.990;8.346;2022-12-10T10:57:52;99698.88;;;3.03;83.92
26112;BME280;13829;48.990;8.346;2022-12-10T11:00:22;99699.59;;;2.98;84.29
26112;BME280;13829;48.990;8.346;2022-12-10T11:02:50;99695.84;;;3.21;82.58
26112;BME280;13829;48.990;8.346;2022-12-10T11:05:21;99695.47;;;3.06;83.19
26112;BME280;13829;48.990;8.346;2022-12-10T11:07:58;99698.59;;;3.28;84.86
26112;BME280;13829;48.990;8.346;2022-12-10T11:10:27;99710.94;;;3.38;83.84
26112;BME280;13829;48.990;8.346;2022-12-10T11:12:58;99705.22;;;3.53;85.08
26112;BME280;13829;48.990;8.346;2022-12-10T11:15:35;99705.25;;;3.56;85.36
26112;BME280;13829;48.990;8.346;2022-12-10T11:18:23;99696.72;;;3.60;81.70
26112;BME280;13829;48.990;8.346;2022-12-10T11:20:59;99700.44;;;3.71;81.71
26112;BME280;13829;48.990;8.346;2022-12-10T11:23:28;99704.03;;;3.80;80.66
26112;BME280;13829;48.990;8.346;2022-12-10T11:26:08;99693.19;;;3.58;80.36
26112;BME280;13829;48.990;8.346;2022-12-10T11:28:51;99702.81;;;3.62;82.50
26112;BME280;13829;48.990;8.346;2022-12-10T11:31:39;99704.00;;;3.77;80.51
26112;BME280;13829;48.990;8.346;2022-12-10T11:34:17;99692.69;;;3.35;81.83
26112;BME280;13829;48.990;8.346;2022-12-10T11:36:55;99691.88;;;3.37;81.42
26112;BME280;13829;48.990;8.346;2022-12-10T11:39:51;99689.75;;;3.19;82.27
26112;BME280;13829;48.990;8.346;2022-12-10T11:42:33;99684.41;;;3.53;82.36
26112;BME280;13829;48.990;8.346;2022-12-10T11:45:14;99692.75;;;3.78;80.57
26112;BME280;13829;48.990;8.346;2022-12-10T11:48:05;99693.47;;;3.70;81.96
26112;BME280;13829;48.990;8.346;2022-12-10T11:50:41;99700.00;;;3.53;80.12
26112;BME280;13829;48.990;8.346;2022-12-10T11:53:28;99700.50;;;3.36;80.60
26112;BME280;13829;48.990;8.346;2022-12-10T11:56:13;99692.59;;;3.32;79.63
26112;BME280;13829;48.990;8.346;2022-12-10T11:58:58;99696.78;;;3.25;80.25
26112;BME280;13829;48.990;8.346;2022-12-10T12:01:45;99706.47;;;3.31;81.06
26112;BME280;13829;48.990;8.346;2022-12-10T12:04:28;99705.06;;;3.47;80.68
26112;BME280;13829;48.990;8.346;2022-12-10T12:07:33;99714.00;;;3.58;78.91
26112;BME280;13829;48.990;8.346;2022-12-10T12:13:24;99708.50;;;3.46;78.57
26112;BME280;13829;48.990;8.346;2022-12-10T12:16:00;99715.84;;;3.25;81.64
26112;BME280;13829;48.990;8.346;2022-12-10T12:18:40;99715.25;;;3.36;81.22
26112;BME280;13829;48.990;8.346;2022-12-10T12:21:14;99717.22;;;3.48;80.48
26112;BME280;13829;48.990;8.346;2022-12-10T12:23:49;99715.13;;;3.31;80.11
26112;BME280;13829;48.990;8.346;2022-12-10T12:26:27;99725.09;;;3.51;79.38
26112;BME280;13829;48.990;8.346;2022-12-10T12:29:02;99728.28;;;3.37;79.80
26112;BME280;13829;48.990;8.346;2022-12-10T12:31:37;99732.00;;;3.49;79.02
26112;BME280;13829;48.990;8.346;2022-12-10T12:34:16;99718.19;;;3.51;79.92
26112;BME280;13829;48.990;8.346;2022-12-10T12:36:46;99724.28;;;3.15;80.18
26112;BME280;13829;48.990;8.346;2022-12-10T12:39:23;99728.44;;;3.45;79.56
26112;BME280;13829;48.990;8.346;2022-12-10T12:42:02;99731.88;;;3.07;79.68
26112;BME280;13829;48.990;8.346;2022-12-10T12:44:43;99733.13;;;3.22;79.63
26112;BME280;13829;48.990;8.346;2022-12-10T12:47:29;99740.41;;;3.02;80.50
26112;BME280;13829;48.990;8.346;2022-12-10T12:49:59;99741.47;;;3.10;80.04
26112;BME280;13829;48.990;8.346;2022-12-10T12:52:37;99737.03;;;3.04;80.29
26112;BME280;13829;48.990;8.346;2022-12-10T12:55:17;99735.97;;;3.34;80.62
26112;BME280;13829;48.990;8.346;2022-12-10T12:57:51;99728.25;;;3.36;80.87
26112;BME280;13829;48.990;8.346;2022-12-10T13:00:22;99738.91;;;3.48;81.37
26112;BME280;13829;48.990;8.346;2022-12-10T13:03:02;99744.72;;;3.76;79.94
26112;BME280;13829;48.990;8.346;2022-12-10T13:05:38;99741.53;;;3.88;79.20
26112;BME280;13829;48.990;8.346;2022-12-10T13:08:29;99748.72;;;3.60;77.32
26112;BME280;13829;48.990;8.346;2022-12-10T13:14:32;99755.63;;;3.59;77.59
26112;BME280;13829;48.990;8.346;2022-12-10T13:17:27;99762.88;;;3.35;77.88
26112;BME280;13829;48.990;8.346;2022-12-10T13:20:33;99768.56;;;3.20;79.70
26112;BME280;13829;48.990;8.346;2022-12-10T13:23:03;99770.69;;;3.36;79.00
26112;BME280;13829;48.990;8.346;2022-12-10T13:25:41;99775.69;;;3.27;78.98
26112;BME280;13829;48.990;8.346;2022-12-10T13:28:28;99771.34;;;3.28;78.39
26112;BME280;13829;48.990;8.346;2022-12-10T13:31:34;99772.50;;;3.40;78.27
26112;BME280;13829;48.990;8.346;2022-12-10T13:34:23;99783.00;;;3.43;78.32
26112;BME280;13829;48.990;8.346;2022-12-10T13:37:27;99787.59;;;3.55;76.65
26112;BME280;13829;48.990;8.346;2022-12-10T13:40:14;99787.44;;;3.49;75.25